createdAt,value
2022-11-28T00:01:31.088Z,4.30
2022-11-28T00:03:58.014Z,4.30
2022-11-28T00:06:26.979Z,4.30
2022-11-28T00:08:54.809Z,4.30
2022-11-28T00:11:22.115Z,4.20
2022-11-28T00:13:48.950Z,4.20
2022-11-28T00:16:21.428Z,4.20
2022-11-28T00:18:53.281Z,4.20
2022-11-28T00:21:20.981Z,4.20
2022-11-28T00:23:48.737Z,4.20
2022-11-28T00:26:24.956Z,4.10
2022-11-28T00:28:51.719Z,4.20
2022-11-28T00:31:21.691Z,4.20
2022-11-28T00:33:48.778Z,4.20
2022-11-28T00:36:15.659Z,4.20
2022-11-28T00:38:42.594Z,4.10
2022-11-28T00:41:13.166Z,4.10
2022-11-28T00:43:40.999Z,4.10
2022-11-28T00:46:08.333Z,4.10
2022-11-28T00:48:40.241Z,4.10
2022-11-28T00:51:19.252Z,4.10
2022-11-28T00:53:47.625Z,4.10
2022-11-28T00:56:16.530Z,4.00
2022-11-28T00:58:44.241Z,4.00
2022-11-28T01:01:18.682Z,4.00
2022-11-28T01:03:46.158Z,3.90
2022-11-28T01:06:24.867Z,4.00
2022-11-28T01:08:51.904Z,4.00
2022-11-28T01:11:19.363Z,4.00
2022-11-28T01:13:45.989Z,4.00
2022-11-28T01:16:13.322Z,4.00
2022-11-28T01:18:40.037Z,4.00
2022-11-28T01:21:07.517Z,4.00
2022-11-28T01:23:34.881Z,4.00
2022-11-28T01:26:02.120Z,4.00
2022-11-28T01:28:29.126Z,4.00
2022-11-28T01:30:55.805Z,4.00
2022-11-28T01:33:22.681Z,4.00
2022-11-28T01:35:57.180Z,4.00
2022-11-28T01:38:24.568Z,4.00
2022-11-28T01:40:52.054Z,3.90
2022-11-28T01:43:19.326Z,3.90
2022-11-28T01:45:46.525Z,3.90
2022-11-28T01:48:17.253Z,3.90
2022-11-28T01:50:44.780Z,3.90
2022-11-28T01:53:12.336Z,3.90
2022-11-28T01:56:02.077Z,3.90
2022-11-28T01:58:30.429Z,3.90
2022-11-28T02:00:57.722Z,3.90
2022-11-28T02:03:33.593Z,3.90
2022-11-28T02:06:00.522Z,3.90
2022-11-28T02:08:27.252Z,3.90
2022-11-28T02:11:28.330Z,3.90
2022-11-28T02:14:40.442Z,3.90
2022-11-28T02:17:41.138Z,3.90
2022-11-28T02:20:41.820Z,3.90
2022-11-28T02:23:25.756Z,3.90
2022-11-28T02:26:16.170Z,3.80
2022-11-28T02:28:57.652Z,3.90
2022-11-28T02:31:50.242Z,3.80
2022-11-28T02:34:47.058Z,3.80
2022-11-28T02:37:20.156Z,3.80
2022-11-28T02:40:06.445Z,3.80
2022-11-28T02:42:44.937Z,3.90
2022-11-28T02:45:29.698Z,3.80
2022-11-28T02:48:07.147Z,3.80
2022-11-28T02:50:54.731Z,3.80
2022-11-28T02:53:24.469Z,3.80
2022-11-28T02:55:52.519Z,3.80
2022-11-28T02:58:19.258Z,3.80
2022-11-28T03:00:48.318Z,3.80
2022-11-28T03:03:33.870Z,3.80
2022-11-28T03:06:27.695Z,3.80
2022-11-28T03:09:08.712Z,3.70
2022-11-28T03:11:41.750Z,3.70
2022-11-28T03:14:41.887Z,3.60
2022-11-28T03:17:08.631Z,3.60
2022-11-28T03:19:39.834Z,3.60
2022-11-28T03:22:30.589Z,3.60
2022-11-28T03:25:05.984Z,3.50
2022-11-28T03:27:35.228Z,3.60
2022-11-28T03:30:11.180Z,3.50
2022-11-28T03:32:39.283Z,3.50
2022-11-28T03:35:16.788Z,3.50
2022-11-28T03:37:55.279Z,3.50
2022-11-28T03:40:27.364Z,3.50
2022-11-28T03:43:11.579Z,3.50
2022-11-28T03:45:51.999Z,3.50
2022-11-28T03:48:31.712Z,3.50
2022-11-28T03:51:13.632Z,3.50
2022-11-28T03:53:43.249Z,3.50
2022-11-28T03:56:26.405Z,3.50
2022-11-28T03:58:59.990Z,3.50
2022-11-28T04:01:57.759Z,3.50
2022-11-28T04:04:38.514Z,3.50
2022-11-28T04:07:05.117Z,3.50
2022-11-28T04:09:49.306Z,3.50
2022-11-28T04:12:37.553Z,3.50
2022-11-28T04:15:14.630Z,3.50
2022-11-28T04:17:49.640Z,3.40
2022-11-28T04:20:37.997Z,3.40
2022-11-28T04:23:13.478Z,3.40
2022-11-28T04:25:45.969Z,3.40
2022-11-28T04:28:18.645Z,3.40
2022-11-28T04:30:49.006Z,3.40
2022-11-28T04:33:19.253Z,3.40
2022-11-28T04:35:50.051Z,3.40
2022-11-28T04:38:17.607Z,3.40
2022-11-28T04:41:12.470Z,3.40
2022-11-28T04:43:46.203Z,3.40
2022-11-28T04:46:21.905Z,3.30
2022-11-28T04:48:48.510Z,3.30
2022-11-28T04:51:45.362Z,3.30
2022-11-28T04:54:24.510Z,3.30
2022-11-28T04:57:00.516Z,3.30
2022-11-28T04:59:30.029Z,3.30
2022-11-28T05:01:58.602Z,3.30
2022-11-28T05:04:25.545Z,3.40
2022-11-28T05:07:01.460Z,3.40
2022-11-28T05:09:28.180Z,3.50
2022-11-28T05:11:55.018Z,3.50
2022-11-28T05:14:21.916Z,3.50
2022-11-28T05:16:49.167Z,3.60
2022-11-28T05:19:16.157Z,3.60
2022-11-28T05:21:43.251Z,3.60
2022-11-28T05:24:09.921Z,3.70
2022-11-28T05:26:37.125Z,3.70
2022-11-28T05:29:04.676Z,3.70
2022-11-28T05:31:31.660Z,3.70
2022-11-28T05:33:58.380Z,3.70
2022-11-28T05:36:25.094Z,3.80
2022-11-28T05:38:51.842Z,3.80
2022-11-28T05:41:26.669Z,3.90
2022-11-28T05:43:54.374Z,3.80
2022-11-28T05:46:21.040Z,3.90
2022-11-28T05:48:47.752Z,3.80
2022-11-28T05:51:14.676Z,3.90
2022-11-28T05:53:41.503Z,3.90
2022-11-28T05:56:11.574Z,3.80
2022-11-28T05:58:38.586Z,3.90
2022-11-28T06:01:20.394Z,3.90
2022-11-28T06:03:47.734Z,3.90
2022-11-28T06:06:20.384Z,3.90
2022-11-28T06:08:48.727Z,3.90
2022-11-28T06:11:16.557Z,3.90
2022-11-28T06:13:44.690Z,3.90
2022-11-28T06:16:14.424Z,3.90
2022-11-28T06:18:41.744Z,3.90
2022-11-28T06:21:10.230Z,3.90
2022-11-28T06:23:37.831Z,3.90
2022-11-28T06:26:10.600Z,4.00
2022-11-28T06:28:37.627Z,4.00
2022-11-28T06:31:04.487Z,3.90
2022-11-28T06:33:31.481Z,3.90
2022-11-28T06:36:01.944Z,3.90
2022-11-28T06:38:29.076Z,3.90
2022-11-28T06:41:05.193Z,3.90
2022-11-28T06:43:32.549Z,3.90
2022-11-28T06:45:59.731Z,3.90
2022-11-28T06:48:26.561Z,3.90
2022-11-28T06:50:53.748Z,3.90
2022-11-28T06:53:20.523Z,3.90
2022-11-28T06:55:47.405Z,3.90
2022-11-28T06:58:14.080Z,3.80
2022-11-28T07:00:40.922Z,3.80
2022-11-28T07:03:07.665Z,3.80
2022-11-28T07:05:34.416Z,3.80
2022-11-28T07:08:01.129Z,3.80
2022-11-28T07:10:28.515Z,3.80
2022-11-28T07:12:59.377Z,3.80
2022-11-28T07:15:29.111Z,3.70
2022-11-28T07:17:55.800Z,3.70
2022-11-28T07:20:22.452Z,3.70
2022-11-28T07:22:49.235Z,3.70
2022-11-28T07:25:15.952Z,3.70
2022-11-28T07:27:42.855Z,3.70
2022-11-28T07:30:10.468Z,3.70
2022-11-28T07:32:39.518Z,3.70
2022-11-28T07:35:06.951Z,3.70
2022-11-28T07:37:33.610Z,3.70
2022-11-28T07:40:00.264Z,3.70
2022-11-28T07:42:27.743Z,3.70
2022-11-28T07:44:54.400Z,3.70
2022-11-28T07:47:21.803Z,3.70
2022-11-28T07:49:48.808Z,3.70
2022-11-28T07:52:15.654Z,3.80
2022-11-28T07:54:42.371Z,3.80
2022-11-28T07:57:13.241Z,3.80
2022-11-28T07:59:40.586Z,3.90
2022-11-28T08:02:09.135Z,3.90
2022-11-28T08:04:41.329Z,3.90
2022-11-28T08:07:13.650Z,3.90
2022-11-28T08:09:40.777Z,3.90
2022-11-28T08:12:07.985Z,4.00
2022-11-28T08:14:34.710Z,4.00
2022-11-28T08:17:01.449Z,4.00
2022-11-28T08:19:31.931Z,4.10
2022-11-28T08:22:00.530Z,4.10
2022-11-28T08:24:27.189Z,4.20
2022-11-28T08:26:53.928Z,4.20
2022-11-28T08:29:20.613Z,4.20
2022-11-28T08:31:47.608Z,4.30
2022-11-28T08:34:14.552Z,4.30
2022-11-28T08:36:41.207Z,4.30
2022-11-28T08:39:24.802Z,4.40
2022-11-28T08:41:52.716Z,4.40
2022-11-28T08:44:22.622Z,4.40
2022-11-28T08:46:49.357Z,4.40
2022-11-28T08:49:16.054Z,4.40
2022-11-28T08:51:42.758Z,4.50
2022-11-28T08:54:09.443Z,4.40
2022-11-28T08:56:36.264Z,4.50
2022-11-28T08:59:03.324Z,4.50
2022-11-28T09:01:30.079Z,4.50
2022-11-28T09:03:56.965Z,4.50
2022-11-28T09:06:24.328Z,4.50
2022-11-28T09:08:52.279Z,4.60
2022-11-28T09:11:20.264Z,4.60
2022-11-28T09:13:47.427Z,4.60
2022-11-28T09:16:14.978Z,4.60
2022-11-28T09:18:42.121Z,4.60
2022-11-28T09:21:10.753Z,4.70
2022-11-28T09:23:39.517Z,4.70
2022-11-28T09:26:14.479Z,4.70
2022-11-28T09:28:41.585Z,4.80
2022-11-28T09:31:08.993Z,4.80
2022-11-28T09:33:36.330Z,4.70
2022-11-28T09:36:32.835Z,4.80
2022-11-28T09:39:00.818Z,4.70
2022-11-28T09:42:04.555Z,4.70
2022-11-28T09:44:54.796Z,4.70
2022-11-28T09:47:31.342Z,4.70
2022-11-28T09:50:14.144Z,4.70
2022-11-28T09:53:08.670Z,4.80
2022-11-28T09:55:41.572Z,4.90
2022-11-28T09:58:27.076Z,4.90
2022-11-28T10:01:18.310Z,5.00
2022-11-28T10:04:03.739Z,5.00
2022-11-28T10:06:54.915Z,5.00
2022-11-28T10:09:33.502Z,5.10
2022-11-28T10:12:12.218Z,5.10
2022-11-28T10:14:59.076Z,5.20
2022-11-28T10:17:54.834Z,5.30
2022-11-28T10:20:26.328Z,5.30
2022-11-28T10:23:21.861Z,5.30
2022-11-28T10:25:55.601Z,5.40
2022-11-28T10:28:44.303Z,5.40
2022-11-28T10:31:15.153Z,5.50
2022-11-28T10:33:47.658Z,5.50
2022-11-28T10:36:37.639Z,5.50
2022-11-28T10:39:12.268Z,5.60
2022-11-28T10:42:02.000Z,5.60
2022-11-28T10:44:41.526Z,5.60
2022-11-28T10:47:18.717Z,5.70
2022-11-28T10:49:57.342Z,5.80
2022-11-28T10:52:42.295Z,5.80
2022-11-28T10:55:27.322Z,5.80
2022-11-28T10:58:31.336Z,5.80
2022-11-28T11:00:58.550Z,5.90
2022-11-28T11:03:32.161Z,5.90
2022-11-28T11:06:00.226Z,5.90
2022-11-28T11:08:29.492Z,5.90
2022-11-28T11:11:29.421Z,5.90
2022-11-28T11:14:05.893Z,5.90
2022-11-28T11:16:56.071Z,5.90
2022-11-28T11:19:30.378Z,5.90
2022-11-28T11:22:22.730Z,6.00
2022-11-28T11:25:14.348Z,6.00
2022-11-28T11:27:49.770Z,6.10
2022-11-28T11:30:35.843Z,6.10
2022-11-28T11:33:05.326Z,6.20
2022-11-28T11:35:42.500Z,6.20
2022-11-28T11:38:30.312Z,6.30
2022-11-28T11:41:28.385Z,6.40
2022-11-28T11:43:55.852Z,6.40
2022-11-28T11:46:22.701Z,6.50
2022-11-28T11:48:52.363Z,6.50
2022-11-28T11:51:32.734Z,6.50
2022-11-28T11:54:15.454Z,6.50
2022-11-28T11:56:46.201Z,6.50
2022-11-28T11:59:48.218Z,6.60
2022-11-28T12:02:31.400Z,6.70
2022-11-28T12:05:12.049Z,6.70
2022-11-28T12:07:48.574Z,6.70
2022-11-28T12:10:21.190Z,6.80
2022-11-28T12:12:47.888Z,6.80
2022-11-28T12:15:32.670Z,6.80
2022-11-28T12:18:28.927Z,6.90
2022-11-28T12:21:18.449Z,6.90
2022-11-28T12:23:53.940Z,6.90
2022-11-28T12:26:36.352Z,6.90
2022-11-28T12:29:36.202Z,6.90
2022-11-28T12:32:35.207Z,6.90
2022-11-28T12:35:40.071Z,6.90
2022-11-28T12:38:11.099Z,6.90
2022-11-28T12:40:44.456Z,6.90
2022-11-28T12:43:31.029Z,6.80
2022-11-28T12:46:28.602Z,6.80
2022-11-28T12:49:29.076Z,6.90
2022-11-28T12:51:55.764Z,6.80
2022-11-28T12:54:30.393Z,6.70
2022-11-28T12:57:21.301Z,6.70
2022-11-28T12:59:57.447Z,6.70
2022-11-28T13:02:35.574Z,6.70
2022-11-28T13:05:24.165Z,6.70
2022-11-28T13:08:12.123Z,6.70
2022-11-28T13:10:38.792Z,6.70
2022-11-28T13:13:33.834Z,6.70
2022-11-28T13:16:26.928Z,6.60
2022-11-28T13:19:03.192Z,6.60
2022-11-28T13:21:36.067Z,6.60
2022-11-28T13:24:28.634Z,6.50
2022-11-28T13:27:20.668Z,6.60
2022-11-28T13:30:14.362Z,6.50
2022-11-28T13:33:28.535Z,6.50
2022-11-28T13:35:56.736Z,6.50
2022-11-28T13:38:36.331Z,6.50
2022-11-28T13:41:43.238Z,6.40
2022-11-28T13:44:33.318Z,6.40
2022-11-28T13:47:35.553Z,6.40
2022-11-28T13:50:32.759Z,6.40
2022-11-28T13:53:00.776Z,6.30
2022-11-28T13:55:49.974Z,6.30
2022-11-28T13:58:24.825Z,6.20
2022-11-28T14:01:10.351Z,6.10
2022-11-28T14:04:09.276Z,6.10
2022-11-28T14:06:56.995Z,6.00
2022-11-28T14:09:48.230Z,5.90
2022-11-28T14:12:50.576Z,5.90
2022-11-28T14:15:33.770Z,5.90
2022-11-28T14:19:00.315Z,5.80
2022-11-28T14:21:53.455Z,5.80
2022-11-28T14:24:20.102Z,5.70
2022-11-28T14:26:47.343Z,5.60
2022-11-28T14:29:23.945Z,5.60
2022-11-28T14:32:21.721Z,5.60
2022-11-28T14:34:46.875Z,5.60
2022-11-28T14:37:19.586Z,5.60
2022-11-28T14:39:47.936Z,5.60
2022-11-28T14:42:30.637Z,5.50
2022-11-28T14:45:08.406Z,5.50
2022-11-28T14:47:36.029Z,5.40
2022-11-28T14:50:05.655Z,5.40
2022-11-28T14:52:41.459Z,5.40
2022-11-28T14:55:08.477Z,5.30
2022-11-28T14:57:51.110Z,5.30
2022-11-28T15:00:22.854Z,5.30
2022-11-28T15:03:27.168Z,5.20
2022-11-28T15:06:19.582Z,5.20
2022-11-28T15:09:08.042Z,5.20
2022-11-28T15:11:49.804Z,5.10
2022-11-28T15:14:24.541Z,5.10
2022-11-28T15:16:55.928Z,5.10
2022-11-28T15:19:28.708Z,5.10
2022-11-28T15:21:56.109Z,5.00
2022-11-28T15:24:28.958Z,5.10
2022-11-28T15:26:58.529Z,5.00
2022-11-28T15:29:27.866Z,5.00
2022-11-28T15:31:56.548Z,5.00
2022-11-28T15:34:33.808Z,5.00
2022-11-28T15:37:04.237Z,5.00
2022-11-28T15:39:34.157Z,5.00
2022-11-28T15:42:03.624Z,5.00
2022-11-28T15:44:30.816Z,5.00
2022-11-28T15:46:57.987Z,5.00
2022-11-28T15:49:30.973Z,5.00
2022-11-28T15:52:00.775Z,5.00
2022-11-28T15:54:35.173Z,5.00
2022-11-28T15:57:02.298Z,4.90
2022-11-28T15:59:29.210Z,4.90
2022-11-28T16:02:03.718Z,4.90
2022-11-28T16:04:31.010Z,4.90
2022-11-28T16:06:59.770Z,4.90
2022-11-28T16:09:35.161Z,4.80
2022-11-28T16:12:04.230Z,4.80
2022-11-28T16:14:38.398Z,4.80
2022-11-28T16:17:18.849Z,4.80
2022-11-28T16:19:46.093Z,4.80
2022-11-28T16:22:19.542Z,4.70
2022-11-28T16:24:50.907Z,4.80
2022-11-28T16:27:36.229Z,4.80
2022-11-28T16:30:32.096Z,4.80
2022-11-28T16:32:58.955Z,4.80
2022-11-28T16:35:27.767Z,4.70
2022-11-28T16:38:14.339Z,4.70
2022-11-28T16:40:41.608Z,4.60
2022-11-28T16:43:30.140Z,4.60
2022-11-28T16:45:58.760Z,4.60
2022-11-28T16:48:29.066Z,4.50
2022-11-28T16:51:01.993Z,4.50
2022-11-28T16:53:40.573Z,4.50
2022-11-28T16:56:26.582Z,4.50
2022-11-28T16:59:13.454Z,4.50
2022-11-28T17:01:42.991Z,4.50
2022-11-28T17:04:27.851Z,4.40
2022-11-28T17:06:57.809Z,4.40
2022-11-28T17:09:24.912Z,4.40
2022-11-28T17:11:56.943Z,4.40
2022-11-28T17:14:24.037Z,4.40
2022-11-28T17:16:50.788Z,4.40
2022-11-28T17:19:17.476Z,4.40
2022-11-28T17:21:47.996Z,4.40
2022-11-28T17:24:26.992Z,4.40
2022-11-28T17:26:54.305Z,4.40
2022-11-28T17:29:21.950Z,4.40
2022-11-28T17:31:49.012Z,4.40
2022-11-28T17:34:21.441Z,4.40
2022-11-28T17:36:48.731Z,4.40
2022-11-28T17:39:16.075Z,4.40
2022-11-28T17:41:43.280Z,4.40
2022-11-28T17:44:20.640Z,4.40
2022-11-28T17:46:48.629Z,4.50
2022-11-28T17:49:15.663Z,4.50
2022-11-28T17:51:42.678Z,4.50
2022-11-28T17:54:12.638Z,4.40
2022-11-28T17:56:39.370Z,4.40
2022-11-28T17:59:06.496Z,4.40
2022-11-28T18:01:33.245Z,4.50
2022-11-28T18:04:00.080Z,4.50
2022-11-28T18:06:26.985Z,4.50
2022-11-28T18:08:54.809Z,4.50
2022-11-28T18:11:21.498Z,4.50
2022-11-28T18:13:48.528Z,4.50
2022-11-28T18:16:18.748Z,4.50
2022-11-28T18:18:50.387Z,4.40
2022-11-28T18:21:17.532Z,4.40
2022-11-28T18:23:46.890Z,4.40
2022-11-28T18:26:17.433Z,4.40
2022-11-28T18:28:44.324Z,4.40
2022-11-28T18:31:32.694Z,4.40
2022-11-28T18:34:04.810Z,4.50
2022-11-28T18:36:33.327Z,4.50
2022-11-28T18:39:02.489Z,4.50
2022-11-28T18:41:29.824Z,4.40
2022-11-28T18:43:57.916Z,4.50
2022-11-28T18:46:25.198Z,4.50
2022-11-28T18:48:52.210Z,4.40
2022-11-28T18:51:22.174Z,4.40
2022-11-28T18:53:51.609Z,4.50
2022-11-28T18:56:20.179Z,4.50
2022-11-28T18:58:49.011Z,4.50
2022-11-28T19:01:21.883Z,4.50
2022-11-28T19:03:50.945Z,4.50
2022-11-28T19:06:17.972Z,4.50
2022-11-28T19:08:44.969Z,4.50
2022-11-28T19:11:14.928Z,4.50
2022-11-28T19:13:47.473Z,4.50
2022-11-28T19:16:23.791Z,4.50
2022-11-28T19:18:51.640Z,4.50
2022-11-28T19:21:21.840Z,4.40
2022-11-28T19:23:49.109Z,4.40
2022-11-28T19:26:21.664Z,4.50
2022-11-28T19:28:49.123Z,4.40
2022-11-28T19:31:18.263Z,4.40
2022-11-28T19:33:45.042Z,4.40
2022-11-28T19:36:13.583Z,4.40
2022-11-28T19:38:41.539Z,4.40
2022-11-28T19:41:16.152Z,4.40
2022-11-28T19:43:43.206Z,4.40
2022-11-28T19:46:11.351Z,4.40
2022-11-28T19:48:39.446Z,4.40
2022-11-28T19:51:07.476Z,4.50
2022-11-28T19:53:36.141Z,4.40
2022-11-28T19:56:07.861Z,4.40
2022-11-28T19:58:35.486Z,4.40
2022-11-28T20:01:07.814Z,4.50
2022-11-28T20:03:35.839Z,4.50
2022-11-28T20:06:06.518Z,4.50
2022-11-28T20:08:33.345Z,4.50
2022-11-28T20:11:10.477Z,4.50
2022-11-28T20:13:37.301Z,4.50
2022-11-28T20:16:06.023Z,4.50
2022-11-28T20:18:32.937Z,4.50
2022-11-28T20:21:13.345Z,4.50
2022-11-28T20:23:41.796Z,4.50
2022-11-28T20:26:09.162Z,4.40
2022-11-28T20:28:37.659Z,4.40
2022-11-28T20:31:05.640Z,4.50
2022-11-28T20:33:33.210Z,4.40
2022-11-28T20:36:11.780Z,4.40
2022-11-28T20:38:38.537Z,4.40
2022-11-28T20:41:08.226Z,4.40
2022-11-28T20:43:37.356Z,4.40
2022-11-28T20:46:21.762Z,4.40
2022-11-28T20:48:48.911Z,4.30
2022-11-28T20:51:20.960Z,4.30
2022-11-28T20:53:48.432Z,4.40
2022-11-28T20:56:18.182Z,4.30
2022-11-28T20:58:45.398Z,4.40
2022-11-28T21:01:17.360Z,4.40
2022-11-28T21:03:45.005Z,4.40
2022-11-28T21:06:12.246Z,4.40
2022-11-28T21:08:39.262Z,4.40
2022-11-28T21:11:25.537Z,4.40
2022-11-28T21:14:01.487Z,4.40
2022-11-28T21:16:30.626Z,4.40
2022-11-28T21:19:01.082Z,4.40
2022-11-28T21:21:30.782Z,4.40
2022-11-28T21:24:04.013Z,4.40
2022-11-28T21:26:40.530Z,4.40
2022-11-28T21:29:11.381Z,4.40
2022-11-28T21:31:42.845Z,4.40
2022-11-28T21:34:12.717Z,4.40
2022-11-28T21:36:39.492Z,4.40
2022-11-28T21:39:06.271Z,4.30
2022-11-28T21:41:33.331Z,4.30
2022-11-28T21:44:01.109Z,4.30
2022-11-28T21:46:28.074Z,4.30
2022-11-28T21:48:54.996Z,4.30
2022-11-28T21:51:23.928Z,4.30
2022-11-28T21:53:51.122Z,4.30
2022-11-28T21:56:18.492Z,4.30
2022-11-28T21:58:45.255Z,4.30
2022-11-28T22:01:13.697Z,4.30
2022-11-28T22:03:41.612Z,4.30
2022-11-28T22:06:11.387Z,4.30
2022-11-28T22:08:41.121Z,4.30
2022-11-28T22:11:08.214Z,4.30
2022-11-28T22:13:35.733Z,4.30
2022-11-28T22:16:07.328Z,4.30
2022-11-28T22:18:34.190Z,4.30
2022-11-28T22:21:22.387Z,4.20
2022-11-28T22:23:52.369Z,4.20
2022-11-28T22:26:19.101Z,4.20
2022-11-28T22:28:53.168Z,4.20
2022-11-28T22:31:20.830Z,4.20
2022-11-28T22:33:49.572Z,4.20
2022-11-28T22:36:20.254Z,4.20
2022-11-28T22:38:48.384Z,4.20
2022-11-28T22:41:24.767Z,4.20
2022-11-28T22:43:56.020Z,4.20
2022-11-28T22:46:22.855Z,4.20
2022-11-28T22:48:49.753Z,4.20
2022-11-28T22:51:22.581Z,4.20
2022-11-28T22:53:56.737Z,4.20
2022-11-28T22:56:23.997Z,4.20
2022-11-28T22:58:51.054Z,4.20
2022-11-28T23:01:24.065Z,4.10
2022-11-28T23:03:51.613Z,4.20
2022-11-28T23:06:21.018Z,4.10
2022-11-28T23:08:48.789Z,4.20
2022-11-28T23:11:18.313Z,4.10
2022-11-28T23:13:46.322Z,4.10
2022-11-28T23:16:47.437Z,4.10
2022-11-28T23:19:17.403Z,4.10
2022-11-28T23:21:46.702Z,4.10
2022-11-28T23:24:16.452Z,4.10
2022-11-28T23:26:43.710Z,4.10
2022-11-28T23:29:11.477Z,4.10
2022-11-28T23:31:40.695Z,4.00
2022-11-28T23:34:08.938Z,4.00
2022-11-28T23:36:42.135Z,4.00
2022-11-28T23:39:15.334Z,4.00
2022-11-28T23:41:42.481Z,4.00
2022-11-28T23:44:13.851Z,4.00
2022-11-28T23:46:41.598Z,4.00
2022-11-28T23:49:08.710Z,4.00
2022-11-28T23:51:36.131Z,4.00
2022-11-28T23:54:03.204Z,4.00
2022-11-28T23:56:33.357Z,4.00
2022-11-28T23:59:01.703Z,4.00
